createdAt,value
2018-06-04T00:00:36.563Z,0.00
2018-06-04T00:01:36.623Z,0.00
2018-06-04T00:02:36.683Z,0.00
2018-06-04T00:03:36.745Z,0.00
2018-06-04T00:04:36.804Z,0.00
2018-06-04T00:05:36.866Z,0.00
2018-06-04T00:06:36.927Z,0.00
2018-06-04T00:07:36.994Z,0.00
2018-06-04T00:08:37.050Z,0.00
2018-06-04T00:09:37.112Z,0.00
2018-06-04T00:10:37.172Z,0.00
2018-06-04T00:11:37.233Z,0.00
2018-06-04T00:12:37.292Z,0.00
2018-06-04T00:13:37.356Z,0.00
2018-06-04T00:14:37.416Z,0.00
2018-06-04T00:15:37.860Z,0.00
2018-06-04T00:16:37.947Z,0.00
2018-06-04T00:17:37.931Z,0.00
2018-06-04T00:18:38.043Z,0.00
2018-06-04T00:19:38.364Z,0.00
2018-06-04T00:20:37.781Z,0.00
2018-06-04T00:21:37.841Z,0.00
2018-06-04T00:22:38.250Z,0.00
2018-06-04T00:23:38.009Z,0.00
2018-06-04T00:24:38.024Z,0.00
2018-06-04T00:25:38.405Z,0.00
2018-06-04T00:26:38.172Z,0.00
2018-06-04T00:27:38.592Z,0.00
2018-06-04T00:28:38.668Z,0.00
2018-06-04T00:29:38.331Z,0.00
2018-06-04T00:30:38.412Z,0.00
2018-06-04T00:31:38.762Z,0.00
2018-06-04T00:32:38.512Z,0.00
2018-06-04T00:33:38.574Z,0.00
2018-06-04T00:34:38.634Z,0.00
2018-06-04T00:35:38.696Z,0.00
2018-06-04T00:36:38.756Z,0.00
2018-06-04T00:37:38.820Z,0.00
2018-06-04T00:38:38.877Z,0.00
2018-06-04T00:39:38.938Z,0.00
2018-06-04T00:40:38.998Z,0.00
2018-06-04T00:41:39.060Z,0.00
2018-06-04T00:42:39.120Z,0.00
2018-06-04T00:43:39.182Z,0.00
2018-06-04T00:44:39.245Z,0.00
2018-06-04T00:45:39.305Z,0.00
2018-06-04T00:46:39.363Z,0.00
2018-06-04T00:47:39.425Z,0.00
2018-06-04T00:48:39.485Z,0.00
2018-06-04T00:49:39.547Z,0.00
2018-06-04T00:50:39.607Z,0.00
2018-06-04T00:51:39.669Z,0.00
2018-06-04T00:52:39.779Z,0.00
2018-06-04T00:53:39.792Z,0.00
2018-06-04T00:54:39.850Z,0.00
2018-06-04T00:55:39.912Z,0.00
2018-06-04T00:56:39.971Z,0.00
2018-06-04T00:57:40.032Z,0.00
2018-06-04T00:58:40.243Z,0.00
2018-06-04T00:59:40.155Z,0.00
2018-06-04T01:00:40.216Z,0.00
2018-06-04T01:01:40.276Z,0.00
2018-06-04T01:02:40.336Z,0.00
2018-06-04T01:03:40.400Z,0.00
2018-06-04T01:04:40.458Z,0.00
2018-06-04T01:05:40.520Z,0.00
2018-06-04T01:06:40.581Z,0.00
2018-06-04T01:07:40.645Z,0.00
2018-06-04T01:08:40.700Z,0.00
2018-06-04T01:09:40.763Z,0.00
2018-06-04T01:10:40.824Z,0.00
2018-06-04T01:11:40.886Z,0.00
2018-06-04T01:12:40.946Z,0.00
2018-06-04T01:13:41.006Z,0.00
2018-06-04T01:14:41.068Z,0.00
2018-06-04T01:15:41.917Z,0.00
2018-06-04T01:16:41.745Z,0.00
2018-06-04T01:17:41.250Z,0.00
2018-06-04T01:18:41.311Z,0.00
2018-06-04T01:19:41.371Z,0.00
2018-06-04T01:20:41.935Z,0.00
2018-06-04T01:21:42.100Z,0.00
2018-06-04T01:22:42.153Z,0.00
2018-06-04T01:23:42.072Z,0.00
2018-06-04T01:24:42.276Z,0.00
2018-06-04T01:25:41.740Z,0.00
2018-06-04T01:26:42.580Z,0.00
2018-06-04T01:27:42.256Z,0.00
2018-06-04T01:28:42.567Z,0.00
2018-06-04T01:29:42.531Z,0.00
2018-06-04T01:30:42.039Z,0.00
2018-06-04T01:31:42.628Z,0.00
2018-06-04T01:32:42.757Z,0.00
2018-06-04T01:33:42.745Z,0.00
2018-06-04T01:34:42.948Z,0.00
2018-06-04T01:35:42.865Z,0.00
2018-06-04T01:36:42.903Z,0.00
2018-06-04T01:37:43.351Z,0.00
2018-06-04T01:38:43.057Z,0.00
2018-06-04T01:39:43.205Z,0.00
2018-06-04T01:40:42.687Z,0.00
2018-06-04T01:41:43.290Z,0.00
2018-06-04T01:42:42.768Z,0.00
2018-06-04T01:43:42.829Z,0.00
2018-06-04T01:44:42.897Z,0.00
2018-06-04T01:45:42.954Z,0.00
2018-06-04T01:46:43.011Z,0.00
2018-06-04T01:47:43.072Z,0.00
2018-06-04T01:48:43.132Z,0.00
2018-06-04T01:49:43.192Z,0.00
2018-06-04T01:50:43.254Z,0.00
2018-06-04T01:51:43.332Z,0.00
2018-06-04T01:52:43.375Z,0.00
2018-06-04T01:53:43.585Z,0.00
2018-06-04T01:54:43.497Z,0.00
2018-06-04T01:55:43.557Z,0.00
2018-06-04T01:56:43.627Z,0.00
2018-06-04T01:57:43.677Z,0.00
2018-06-04T01:58:43.745Z,0.00
2018-06-04T01:59:43.950Z,0.00
2018-06-04T02:00:43.860Z,0.00
2018-06-04T02:01:43.921Z,0.00
2018-06-04T02:02:43.984Z,0.00
2018-06-04T02:03:44.042Z,0.00
2018-06-04T02:04:44.102Z,0.00
2018-06-04T02:05:44.413Z,0.00
2018-06-04T02:06:44.224Z,0.00
2018-06-04T02:07:44.286Z,0.00
2018-06-04T02:08:44.344Z,0.00
2018-06-04T02:09:44.407Z,0.00
2018-06-04T02:10:44.466Z,0.00
2018-06-04T02:11:44.531Z,0.00
2018-06-04T02:12:44.587Z,0.00
2018-06-04T02:13:44.651Z,0.00
2018-06-04T02:14:44.709Z,0.00
2018-06-04T02:15:44.769Z,0.00
2018-06-04T02:16:44.830Z,0.00
2018-06-04T02:17:44.891Z,0.00
2018-06-04T02:18:44.953Z,0.00
2018-06-04T02:19:45.012Z,0.00
2018-06-04T02:20:45.072Z,0.00
2018-06-04T02:21:45.284Z,0.00
2018-06-04T02:22:45.195Z,0.00
2018-06-04T02:23:45.258Z,0.00
2018-06-04T02:24:45.314Z,0.00
2018-06-04T02:25:45.376Z,0.00
2018-06-04T02:26:45.687Z,0.00
2018-06-04T02:27:45.496Z,0.00
2018-06-04T02:28:45.557Z,0.00
2018-06-04T02:29:45.617Z,0.00
2018-06-04T02:30:45.677Z,0.00
2018-06-04T02:31:45.743Z,0.00
2018-06-04T02:32:45.799Z,0.00
2018-06-04T02:33:45.860Z,0.00
2018-06-04T02:34:45.921Z,0.00
2018-06-04T02:35:45.981Z,0.00
2018-06-04T02:36:46.047Z,0.00
2018-06-04T02:37:46.102Z,0.00
2018-06-04T02:38:46.162Z,0.00
2018-06-04T02:39:46.222Z,0.00
2018-06-04T02:40:46.285Z,0.00
2018-06-04T02:41:46.344Z,0.00
2018-06-04T02:42:46.406Z,4.00
2018-06-04T02:43:46.465Z,4.00
2018-06-04T02:44:46.525Z,4.00
2018-06-04T02:45:46.586Z,0.00
2018-06-04T02:46:46.653Z,0.00
2018-06-04T02:47:46.707Z,4.00
2018-06-04T02:48:46.774Z,4.00
2018-06-04T02:49:46.835Z,4.00
2018-06-04T02:50:46.888Z,4.00
2018-06-04T02:51:46.949Z,4.00
2018-06-04T02:52:47.008Z,4.00
2018-06-04T02:53:47.097Z,8.00
2018-06-04T02:54:47.174Z,4.00
2018-06-04T02:55:47.192Z,8.00
2018-06-04T02:56:47.251Z,8.00
2018-06-04T02:57:47.327Z,12.00
2018-06-04T02:58:47.373Z,12.00
2018-06-04T02:59:47.433Z,16.00
2018-06-04T03:00:47.493Z,16.00
2018-06-04T03:01:47.553Z,16.00
2018-06-04T03:02:47.613Z,24.00
2018-06-04T03:03:47.675Z,24.00
2018-06-04T03:04:47.736Z,24.00
2018-06-04T03:05:47.795Z,32.00
2018-06-04T03:06:47.856Z,32.00
2018-06-04T03:07:47.917Z,36.00
2018-06-04T03:08:47.976Z,44.00
2018-06-04T03:09:48.037Z,48.00
2018-06-04T03:10:48.097Z,52.00
2018-06-04T03:11:48.166Z,56.00
2018-06-04T03:12:48.219Z,60.00
2018-06-04T03:13:48.278Z,72.00
2018-06-04T03:14:48.339Z,76.00
2018-06-04T03:15:49.114Z,84.00
2018-06-04T03:16:49.056Z,88.00
2018-06-04T03:17:49.179Z,104.00
2018-06-04T03:18:48.961Z,112.00
2018-06-04T03:19:48.644Z,116.00
2018-06-04T03:20:48.701Z,124.00
2018-06-04T03:21:48.761Z,136.00
2018-06-04T03:22:48.821Z,144.00
2018-06-04T03:23:48.883Z,156.00
2018-06-04T03:24:48.944Z,176.00
2018-06-04T03:25:49.004Z,192.00
2018-06-04T03:26:49.064Z,212.00
2018-06-04T03:27:49.125Z,228.00
2018-06-04T03:28:49.184Z,248.00
2018-06-04T03:29:49.245Z,268.00
2018-06-04T03:30:49.310Z,288.00
2018-06-04T03:31:49.368Z,296.00
2018-06-04T03:32:49.426Z,320.00
2018-06-04T03:33:49.490Z,344.00
2018-06-04T03:34:49.561Z,360.00
2018-06-04T03:35:49.610Z,380.00
2018-06-04T03:36:49.669Z,400.00
2018-06-04T03:37:49.730Z,420.00
2018-06-04T03:38:49.791Z,448.00
2018-06-04T03:39:49.857Z,472.00
2018-06-04T03:40:49.911Z,488.00
2018-06-04T03:41:49.971Z,508.00
2018-06-04T03:42:50.033Z,524.00
2018-06-04T03:43:50.093Z,556.00
2018-06-04T03:44:50.152Z,580.00
2018-06-04T03:45:50.213Z,620.00
2018-06-04T03:46:50.275Z,660.00
2018-06-04T03:47:50.335Z,696.00
2018-06-04T03:48:50.395Z,744.00
2018-06-04T03:49:50.460Z,784.00
2018-06-04T03:50:50.519Z,828.00
2018-06-04T03:51:50.575Z,880.00
2018-06-04T03:52:50.636Z,904.00
2018-06-04T03:53:50.697Z,936.00
2018-06-04T03:54:50.763Z,956.00
2018-06-04T03:55:50.818Z,948.00
2018-06-04T03:56:50.879Z,928.00
2018-06-04T03:57:50.939Z,928.00
2018-06-04T03:58:51.003Z,960.00
2018-06-04T03:59:51.059Z,1016.00
2018-06-04T04:00:51.142Z,1068.00
2018-06-04T04:01:51.289Z,1096.00
2018-06-04T04:02:51.532Z,1112.00
2018-06-04T04:03:51.302Z,1148.00
2018-06-04T04:04:51.362Z,1204.00
2018-06-04T04:05:51.422Z,1272.00
2018-06-04T04:06:51.485Z,1336.00
2018-06-04T04:07:51.547Z,1408.00
2018-06-04T04:08:51.606Z,1516.00
2018-06-04T04:09:51.668Z,1588.00
2018-06-04T04:10:51.724Z,1652.00
2018-06-04T04:11:51.793Z,1696.00
2018-06-04T04:12:51.845Z,1756.00
2018-06-04T04:13:51.907Z,1712.00
2018-06-04T04:14:51.967Z,1660.00
2018-06-04T04:15:52.029Z,1692.00
2018-06-04T04:16:52.088Z,1560.00
2018-06-04T04:17:52.148Z,1560.00
2018-06-04T04:18:52.209Z,1536.00
2018-06-04T04:19:52.270Z,1496.00
2018-06-04T04:20:52.344Z,1472.00
2018-06-04T04:21:52.391Z,1476.00
2018-06-04T04:22:52.451Z,1428.00
2018-06-04T04:23:52.520Z,1428.00
2018-06-04T04:24:52.574Z,1464.00
2018-06-04T04:25:52.635Z,1704.00
2018-06-04T04:26:52.710Z,2052.00
2018-06-04T04:27:52.781Z,2180.00
2018-06-04T04:28:52.815Z,2192.00
2018-06-04T04:29:52.891Z,2212.00
2018-06-04T04:30:52.937Z,2388.00
2018-06-04T04:31:52.998Z,2408.00
2018-06-04T04:32:53.058Z,2580.00
2018-06-04T04:33:53.119Z,2792.00
2018-06-04T04:34:53.179Z,2836.00
2018-06-04T04:35:53.240Z,2796.00
2018-06-04T04:36:53.301Z,2796.00
2018-06-04T04:37:53.363Z,2876.00
2018-06-04T04:38:53.424Z,2812.00
2018-06-04T04:39:53.491Z,2912.00
2018-06-04T04:40:53.546Z,3036.00
2018-06-04T04:41:53.605Z,3112.00
2018-06-04T04:42:53.668Z,3236.00
2018-06-04T04:43:53.729Z,3424.00
2018-06-04T04:44:53.787Z,3568.00
2018-06-04T04:45:53.850Z,3584.00
2018-06-04T04:46:53.911Z,3604.00
2018-06-04T04:47:53.973Z,3708.00
2018-06-04T04:48:54.033Z,3924.00
2018-06-04T04:49:54.094Z,3896.00
2018-06-04T04:50:54.155Z,3944.00
2018-06-04T04:51:54.217Z,4088.00
2018-06-04T04:52:54.278Z,4352.00
2018-06-04T04:53:54.343Z,4616.00
2018-06-04T04:54:54.401Z,4756.00
2018-06-04T04:55:54.461Z,4872.00
2018-06-04T04:56:54.525Z,5096.00
2018-06-04T04:57:54.584Z,5240.00
2018-06-04T04:58:54.646Z,5288.00
2018-06-04T04:59:54.708Z,5132.00
2018-06-04T05:00:54.767Z,4664.00
2018-06-04T05:01:54.828Z,5160.00
2018-06-04T05:02:54.890Z,4920.00
2018-06-04T05:03:55.011Z,4084.00
2018-06-04T05:04:55.016Z,3684.00
2018-06-04T05:05:55.074Z,4960.00
2018-06-04T05:06:55.136Z,5344.00
2018-06-04T05:07:55.197Z,5080.00
2018-06-04T05:08:55.258Z,4312.00
2018-06-04T05:09:55.321Z,3916.00
2018-06-04T05:10:55.385Z,4336.00
2018-06-04T05:11:55.766Z,5884.00
2018-06-04T05:12:55.505Z,6320.00
2018-06-04T05:13:55.570Z,6528.00
2018-06-04T05:14:55.626Z,6920.00
2018-06-04T05:15:56.216Z,7276.00
2018-06-04T05:16:56.455Z,7580.00
2018-06-04T05:17:56.692Z,7784.00
2018-06-04T05:18:56.426Z,7996.00
2018-06-04T05:19:56.592Z,8312.00
2018-06-04T05:20:56.598Z,8160.00
2018-06-04T05:21:56.059Z,8040.00
2018-06-04T05:22:56.607Z,7728.00
2018-06-04T05:23:56.722Z,7848.00
2018-06-04T05:24:56.717Z,8080.00
2018-06-04T05:25:56.911Z,7780.00
2018-06-04T05:26:56.370Z,7552.00
2018-06-04T05:27:57.101Z,7012.00
2018-06-04T05:28:57.035Z,6608.00
2018-06-04T05:29:57.070Z,6192.00
2018-06-04T05:30:57.151Z,6076.00
2018-06-04T05:31:57.178Z,6432.00
2018-06-04T05:32:57.234Z,7260.00
2018-06-04T05:33:57.393Z,7812.00
2018-06-04T05:34:57.435Z,8144.00
2018-06-04T05:35:57.552Z,7672.00
2018-06-04T05:36:57.555Z,6956.00
2018-06-04T05:37:57.627Z,6660.00
2018-06-04T05:38:57.728Z,6476.00
2018-06-04T05:39:57.176Z,6128.00
2018-06-04T05:40:57.234Z,5724.00
2018-06-04T05:41:57.297Z,5288.00
2018-06-04T05:42:57.362Z,5120.00
2018-06-04T05:43:57.439Z,4992.00
2018-06-04T05:44:57.482Z,4820.00
2018-06-04T05:45:57.561Z,4824.00
2018-06-04T05:46:57.607Z,4648.00
2018-06-04T05:47:57.672Z,4492.00
2018-06-04T05:48:57.730Z,4464.00
2018-06-04T05:49:57.819Z,4432.00
2018-06-04T05:50:57.905Z,4416.00
2018-06-04T05:51:57.940Z,4404.00
2018-06-04T05:52:58.349Z,4404.00
2018-06-04T05:53:58.082Z,4412.00
2018-06-04T05:54:58.117Z,4408.00
2018-06-04T05:55:58.180Z,4412.00
2018-06-04T05:56:58.228Z,4412.00
2018-06-04T05:57:58.311Z,4412.00
2018-06-04T05:58:58.351Z,4408.00
2018-06-04T05:59:58.414Z,4412.00
2018-06-04T06:00:58.481Z,4420.00
2018-06-04T06:01:58.543Z,4428.00
2018-06-04T06:02:58.602Z,4432.00
2018-06-04T06:03:58.663Z,4436.00
2018-06-04T06:04:58.726Z,4436.00
2018-06-04T06:05:58.787Z,4440.00
2018-06-04T06:06:58.853Z,4416.00
2018-06-04T06:07:58.912Z,4372.00
2018-06-04T06:08:58.973Z,4416.00
2018-06-04T06:09:59.035Z,4496.00
2018-06-04T06:10:59.098Z,4520.00
2018-06-04T06:11:59.160Z,4536.00
2018-06-04T06:13:00.074Z,4552.00
2018-06-04T06:13:59.283Z,4556.00
2018-06-04T06:14:59.345Z,4560.00
2018-06-04T06:15:59.408Z,4560.00
2018-06-04T06:16:59.470Z,4568.00
2018-06-04T06:17:59.531Z,4580.00
2018-06-04T06:18:59.594Z,4596.00
2018-06-04T06:19:59.656Z,4604.00
2018-06-04T06:20:59.718Z,4620.00
2018-06-04T06:21:59.785Z,4628.00
2018-06-04T06:22:59.847Z,4664.00
2018-06-04T06:23:59.905Z,4732.00
2018-06-04T06:25:00.009Z,4772.00
2018-06-04T06:26:00.044Z,4796.00
2018-06-04T06:27:00.092Z,4808.00
2018-06-04T06:28:00.154Z,4832.00
2018-06-04T06:29:00.218Z,4844.00
2018-06-04T06:30:00.283Z,4876.00
2018-06-04T06:31:00.340Z,4928.00
2018-06-04T06:32:00.410Z,5000.00
2018-06-04T06:33:00.464Z,5144.00
2018-06-04T06:34:00.535Z,5340.00
2018-06-04T06:35:00.590Z,5504.00
2018-06-04T06:36:00.653Z,5596.00
2018-06-04T06:37:00.713Z,5632.00
2018-06-04T06:38:00.777Z,5472.00
2018-06-04T06:39:00.865Z,5036.00
2018-06-04T06:40:00.903Z,4748.00
2018-06-04T06:41:00.967Z,4912.00
2018-06-04T06:42:01.027Z,5156.00
2018-06-04T06:43:01.092Z,5096.00
2018-06-04T06:44:01.739Z,5048.00
2018-06-04T06:45:01.214Z,5028.00
2018-06-04T06:46:01.278Z,5016.00
2018-06-04T06:47:01.341Z,5020.00
2018-06-04T06:48:01.403Z,5048.00
2018-06-04T06:49:01.465Z,5068.00
2018-06-04T06:50:01.529Z,5072.00
2018-06-04T06:51:01.592Z,5088.00
2018-06-04T06:52:01.655Z,5108.00
2018-06-04T06:53:01.868Z,5124.00
2018-06-04T06:54:01.780Z,5128.00
2018-06-04T06:55:01.844Z,5144.00
2018-06-04T06:56:01.906Z,5156.00
2018-06-04T06:57:01.971Z,5156.00
2018-06-04T06:58:02.766Z,5168.00
2018-06-04T06:59:02.096Z,5176.00
2018-06-04T07:00:02.157Z,5192.00
2018-06-04T07:01:02.220Z,5196.00
2018-06-04T07:02:02.365Z,5196.00
2018-06-04T07:03:02.349Z,5216.00
2018-06-04T07:04:02.408Z,5236.00
2018-06-04T07:05:02.476Z,5252.00
2018-06-04T07:06:02.534Z,5260.00
2018-06-04T07:07:02.597Z,5272.00
2018-06-04T07:08:03.306Z,5272.00
2018-06-04T07:09:02.724Z,5288.00
2018-06-04T07:10:02.786Z,5304.00
2018-06-04T07:11:03.468Z,5320.00
2018-06-04T07:12:03.343Z,5336.00
2018-06-04T07:13:02.976Z,5352.00
2018-06-04T07:14:03.041Z,5364.00
2018-06-04T07:15:03.821Z,5376.00
2018-06-04T07:16:03.167Z,5384.00
2018-06-04T07:17:03.229Z,5412.00
2018-06-04T07:18:03.294Z,5432.00
2018-06-04T07:19:03.359Z,5452.00
2018-06-04T07:20:03.421Z,5460.00
2018-06-04T07:21:03.485Z,5464.00
2018-06-04T07:22:03.546Z,5464.00
2018-06-04T07:23:03.628Z,5464.00
2018-06-04T07:24:04.073Z,5468.00
2018-06-04T07:25:04.163Z,5484.00
2018-06-04T07:26:04.285Z,5504.00
2018-06-04T07:27:04.242Z,5516.00
2018-06-04T07:28:03.960Z,5544.00
2018-06-04T07:29:03.991Z,5564.00
2018-06-04T07:30:04.055Z,5600.00
2018-06-04T07:31:04.119Z,5624.00
2018-06-04T07:32:04.185Z,5624.00
2018-06-04T07:33:04.247Z,5620.00
2018-06-04T07:34:04.311Z,5644.00
2018-06-04T07:35:04.374Z,5664.00
2018-06-04T07:36:04.439Z,5680.00
2018-06-04T07:37:04.500Z,5688.00
2018-06-04T07:38:04.565Z,5728.00
2018-06-04T07:39:04.629Z,5760.00
2018-06-04T07:40:04.696Z,5788.00
2018-06-04T07:41:04.802Z,5812.00
2018-06-04T07:42:04.821Z,5824.00
2018-06-04T07:43:04.907Z,5828.00
2018-06-04T07:44:04.950Z,5832.00
2018-06-04T07:45:05.013Z,5848.00
2018-06-04T07:46:05.077Z,5856.00
2018-06-04T07:47:05.142Z,5868.00
2018-06-04T07:48:05.206Z,5916.00
2018-06-04T07:49:05.271Z,5952.00
2018-06-04T07:50:05.334Z,5980.00
2018-06-04T07:51:05.398Z,6008.00
2018-06-04T07:52:06.135Z,6028.00
2018-06-04T07:53:05.526Z,6032.00
2018-06-04T07:54:05.594Z,6060.00
2018-06-04T07:55:05.654Z,6088.00
2018-06-04T07:56:05.737Z,6124.00
2018-06-04T07:57:05.783Z,6172.00
2018-06-04T07:58:05.850Z,6216.00
2018-06-04T07:59:05.913Z,6224.00
2018-06-04T08:00:05.989Z,6232.00
2018-06-04T08:01:06.042Z,6236.00
2018-06-04T08:02:06.106Z,6284.00
2018-06-04T08:03:06.172Z,6336.00
2018-06-04T08:04:06.282Z,6364.00
2018-06-04T08:05:06.301Z,6380.00
2018-06-04T08:06:06.366Z,6372.00
2018-06-04T08:07:06.431Z,6380.00
2018-06-04T08:08:06.499Z,6424.00
2018-06-04T08:09:06.559Z,6456.00
2018-06-04T08:10:06.706Z,6484.00
2018-06-04T08:11:06.690Z,6504.00
2018-06-04T08:12:06.757Z,6524.00
2018-06-04T08:13:06.820Z,6536.00
2018-06-04T08:14:06.887Z,6556.00
2018-06-04T08:15:06.950Z,6596.00
2018-06-04T08:16:07.018Z,6656.00
2018-06-04T08:17:07.080Z,6688.00
2018-06-04T08:18:07.146Z,6704.00
2018-06-04T08:19:07.211Z,6708.00
2018-06-04T08:20:07.276Z,6744.00
2018-06-04T08:21:07.340Z,6824.00
2018-06-04T08:22:07.406Z,6852.00
2018-06-04T08:23:07.470Z,6884.00
2018-06-04T08:24:07.580Z,6892.00
2018-06-04T08:25:07.601Z,6900.00
2018-06-04T08:26:07.667Z,6912.00
2018-06-04T08:27:07.734Z,6972.00
2018-06-04T08:28:07.799Z,7032.00
2018-06-04T08:29:07.865Z,7084.00
2018-06-04T08:30:07.932Z,7116.00
2018-06-04T08:31:07.999Z,7172.00
2018-06-04T08:32:08.061Z,7200.00
2018-06-04T08:33:08.126Z,7196.00
2018-06-04T08:34:08.191Z,7248.00
2018-06-04T08:35:08.257Z,7292.00
2018-06-04T08:36:08.323Z,7340.00
2018-06-04T08:37:08.389Z,7380.00
2018-06-04T08:38:08.455Z,7400.00
2018-06-04T08:39:08.522Z,7408.00
2018-06-04T08:40:08.586Z,7440.00
2018-06-04T08:41:08.652Z,7484.00
2018-06-04T08:42:08.720Z,7508.00
2018-06-04T08:43:08.784Z,7508.00
2018-06-04T08:44:08.849Z,7532.00
2018-06-04T08:45:08.914Z,7596.00
2018-06-04T08:46:09.232Z,7628.00
2018-06-04T08:47:09.047Z,7680.00
2018-06-04T08:48:09.115Z,7724.00
2018-06-04T08:49:09.181Z,7792.00
2018-06-04T08:50:09.247Z,7872.00
2018-06-04T08:51:09.313Z,7972.00
2018-06-04T08:52:09.387Z,8012.00
2018-06-04T08:53:09.445Z,8020.00
2018-06-04T08:54:09.512Z,7968.00
2018-06-04T08:55:09.577Z,7944.00
2018-06-04T08:56:09.645Z,7892.00
2018-06-04T08:57:09.711Z,7860.00
2018-06-04T08:58:09.777Z,7936.00
2018-06-04T08:59:09.842Z,7996.00
2018-06-04T09:00:09.910Z,8076.00
2018-06-04T09:01:09.975Z,8188.00
2018-06-04T09:02:10.042Z,8264.00
2018-06-04T09:03:10.108Z,8312.00
2018-06-04T09:04:10.175Z,8380.00
2018-06-04T09:05:10.838Z,8472.00
2018-06-04T09:06:10.306Z,8604.00
2018-06-04T09:07:10.374Z,8796.00
2018-06-04T09:08:10.441Z,8984.00
2018-06-04T09:09:10.506Z,9044.00
2018-06-04T09:10:10.573Z,9060.00
2018-06-04T09:11:10.641Z,9076.00
2018-06-04T09:12:10.707Z,9108.00
2018-06-04T09:13:10.773Z,9188.00
2018-06-04T09:14:10.840Z,9316.00
2018-06-04T09:15:10.907Z,9440.00
2018-06-04T09:16:11.129Z,9572.00
2018-06-04T09:17:11.041Z,9588.00
2018-06-04T09:18:11.107Z,9684.00
2018-06-04T09:19:11.176Z,9748.00
2018-06-04T09:20:11.242Z,9812.00
2018-06-04T09:21:11.320Z,9856.00
2018-06-04T09:22:11.374Z,9904.00
2018-06-04T09:23:11.443Z,9988.00
2018-06-04T09:24:11.509Z,10128.00
2018-06-04T09:25:11.593Z,10360.00
2018-06-04T09:26:11.643Z,10456.00
2018-06-04T09:27:11.713Z,10472.00
2018-06-04T09:28:11.778Z,10432.00
2018-06-04T09:29:11.858Z,10428.00
2018-06-04T09:30:11.912Z,10544.00
2018-06-04T09:31:11.980Z,10576.00
2018-06-04T09:32:12.086Z,10708.00
2018-06-04T09:33:12.113Z,10804.00
2018-06-04T09:34:12.277Z,10892.00
2018-06-04T09:35:12.249Z,10944.00
2018-06-04T09:36:12.317Z,10840.00
2018-06-04T09:37:12.384Z,10852.00
2018-06-04T09:38:12.451Z,11044.00
2018-06-04T09:39:12.522Z,11416.00
2018-06-04T09:40:12.603Z,11828.00
2018-06-04T09:41:12.654Z,12216.00
2018-06-04T09:42:12.721Z,12412.00
2018-06-04T09:43:12.789Z,12552.00
2018-06-04T09:44:12.865Z,12708.00
2018-06-04T09:45:12.924Z,12944.00
2018-06-04T09:46:12.993Z,13260.00
2018-06-04T09:47:13.061Z,13640.00
2018-06-04T09:48:13.160Z,14192.00
2018-06-04T09:49:13.197Z,15072.00
2018-06-04T09:50:13.264Z,15840.00
2018-06-04T09:51:13.333Z,16188.00
2018-06-04T09:52:13.406Z,15848.00
2018-06-04T09:53:13.469Z,15792.00
2018-06-04T09:54:13.537Z,15480.00
2018-06-04T09:55:13.605Z,15872.00
2018-06-04T09:56:14.360Z,15952.00
2018-06-04T09:57:14.251Z,16588.00
2018-06-04T09:58:13.821Z,16792.00
2018-06-04T09:59:14.495Z,17200.00
2018-06-04T10:00:14.527Z,17540.00
2018-06-04T10:01:14.018Z,17672.00
2018-06-04T10:02:14.104Z,19968.00
2018-06-04T10:03:14.157Z,39456.00
2018-06-04T10:04:14.226Z,62496.00
2018-06-04T10:05:14.295Z,72448.00
2018-06-04T10:06:14.367Z,73088.00
2018-06-04T10:07:14.467Z,75232.00
2018-06-04T10:08:14.505Z,75680.00
2018-06-04T10:09:14.576Z,77088.00
2018-06-04T10:10:14.647Z,77536.00
2018-06-04T10:11:14.719Z,75424.00
2018-06-04T10:12:14.796Z,76288.00
2018-06-04T10:13:14.864Z,76928.00
2018-06-04T10:14:14.935Z,74528.00
2018-06-04T10:15:15.007Z,74912.00
2018-06-04T10:16:15.082Z,59136.00
2018-06-04T10:17:15.153Z,54944.00
2018-06-04T10:18:15.229Z,72768.00
2018-06-04T10:19:15.302Z,71424.00
2018-06-04T10:20:15.375Z,73088.00
2018-06-04T10:21:15.447Z,73344.00
2018-06-04T10:22:15.521Z,73600.00
2018-06-04T10:23:15.598Z,72672.00
2018-06-04T10:24:15.671Z,74592.00
2018-06-04T10:25:15.745Z,74976.00
2018-06-04T10:26:15.823Z,74592.00
2018-06-04T10:27:15.900Z,72960.00
2018-06-04T10:28:15.970Z,69088.00
2018-06-04T10:29:16.046Z,69728.00
2018-06-04T10:30:16.125Z,63456.00
2018-06-04T10:31:16.515Z,68928.00
2018-06-04T10:32:16.273Z,66912.00
2018-06-04T10:33:16.348Z,67392.00
2018-06-04T10:34:16.425Z,63616.00
2018-06-04T10:35:16.510Z,66944.00
2018-06-04T10:36:16.580Z,65280.00
2018-06-04T10:37:16.659Z,65664.00
2018-06-04T10:38:16.730Z,65152.00
2018-06-04T10:39:16.825Z,64256.00
2018-06-04T10:40:16.882Z,64544.00
2018-06-04T10:41:16.961Z,17964.00
2018-06-04T10:42:17.034Z,33024.00
2018-06-04T10:43:17.111Z,64128.00
2018-06-04T10:44:17.188Z,66272.00
2018-06-04T10:45:17.263Z,64224.00
2018-06-04T10:46:17.342Z,44384.00
2018-06-04T10:47:17.415Z,18200.00
2018-06-04T10:48:17.493Z,44832.00
2018-06-04T10:49:17.567Z,66176.00
2018-06-04T10:50:17.640Z,44512.00
2018-06-04T10:51:17.716Z,64000.00
2018-06-04T10:52:17.792Z,64576.00
2018-06-04T10:53:17.875Z,63488.00
2018-06-04T10:54:17.943Z,62880.00
2018-06-04T10:55:18.019Z,61600.00
2018-06-04T10:56:18.097Z,60704.00
2018-06-04T10:57:18.170Z,59200.00
2018-06-04T10:58:18.249Z,59168.00
2018-06-04T10:59:18.322Z,58048.00
2018-06-04T11:00:18.401Z,57216.00
2018-06-04T11:01:18.474Z,56160.00
2018-06-04T11:02:18.549Z,55424.00
2018-06-04T11:03:18.628Z,54336.00
2018-06-04T11:04:18.703Z,55072.00
2018-06-04T11:05:18.780Z,52768.00
2018-06-04T11:06:18.856Z,53376.00
2018-06-04T11:07:18.933Z,53184.00
2018-06-04T11:08:19.011Z,52384.00
2018-06-04T11:09:19.087Z,52736.00
2018-06-04T11:10:19.164Z,52160.00
2018-06-04T11:11:19.241Z,52448.00
2018-06-04T11:12:19.319Z,51968.00
2018-06-04T11:13:19.395Z,49504.00
2018-06-04T11:14:19.474Z,42400.00
2018-06-04T11:15:19.551Z,33600.00
2018-06-04T11:16:19.628Z,27456.00
2018-06-04T11:17:19.704Z,21120.00
2018-06-04T11:18:19.781Z,20160.00
2018-06-04T11:19:19.858Z,37920.00
2018-06-04T11:20:19.935Z,51776.00
2018-06-04T11:21:20.011Z,51200.00
2018-06-04T11:22:20.087Z,50208.00
2018-06-04T11:23:20.168Z,49120.00
2018-06-04T11:24:20.240Z,48000.00
2018-06-04T11:25:20.321Z,46496.00
2018-06-04T11:26:20.393Z,46624.00
2018-06-04T11:27:20.468Z,38560.00
2018-06-04T11:28:20.553Z,39616.00
2018-06-04T11:29:20.620Z,31584.00
2018-06-04T11:30:20.741Z,31744.00
2018-06-04T11:31:20.778Z,32192.00
2018-06-04T11:32:20.882Z,45952.00
2018-06-04T11:33:20.940Z,51968.00
2018-06-04T11:34:21.004Z,50592.00
2018-06-04T11:35:21.080Z,48832.00
2018-06-04T11:36:21.157Z,48256.00
2018-06-04T11:37:21.233Z,48192.00
2018-06-04T11:38:21.309Z,48256.00
2018-06-04T11:39:21.386Z,48192.00
2018-06-04T11:40:21.464Z,48896.00
2018-06-04T11:41:21.539Z,48064.00
2018-06-04T11:42:21.618Z,47840.00
2018-06-04T11:43:21.698Z,49888.00
2018-06-04T11:44:21.771Z,52256.00
2018-06-04T11:45:21.848Z,45280.00
2018-06-04T11:46:21.924Z,49760.00
2018-06-04T11:47:22.002Z,52768.00
2018-06-04T11:48:22.080Z,52544.00
2018-06-04T11:49:22.156Z,54240.00
2018-06-04T11:50:22.235Z,54848.00
2018-06-04T11:51:22.312Z,54208.00
2018-06-04T11:52:22.390Z,57280.00
2018-06-04T11:53:22.467Z,59680.00
2018-06-04T11:54:22.546Z,64544.00
2018-06-04T11:55:22.623Z,69632.00
2018-06-04T11:56:22.776Z,70112.00
2018-06-04T11:57:22.792Z,76480.00
2018-06-04T11:58:22.857Z,84064.00
2018-06-04T11:59:22.935Z,92768.00
2018-06-04T12:00:23.014Z,100160.00
2018-06-04T12:01:23.091Z,105472.00
2018-06-04T12:02:23.170Z,111264.00
2018-06-04T12:03:23.248Z,116608.00
2018-06-04T12:04:23.327Z,123680.00
2018-06-04T12:05:23.408Z,127808.00
2018-06-04T12:06:23.482Z,128160.00
2018-06-04T12:07:23.561Z,130720.00
2018-06-04T12:08:23.640Z,128960.00
2018-06-04T12:09:23.717Z,126144.00
2018-06-04T12:10:23.795Z,122528.00
2018-06-04T12:11:23.885Z,122848.00
2018-06-04T12:12:23.952Z,122784.00
2018-06-04T12:13:24.031Z,120256.00
2018-06-04T12:14:24.110Z,118176.00
2018-06-04T12:15:24.189Z,117984.00
2018-06-04T12:16:24.266Z,119808.00
2018-06-04T12:17:24.346Z,121664.00
2018-06-04T12:18:24.423Z,122400.00
2018-06-04T12:19:24.501Z,123488.00